createdAt,value
2016-05-17T00:00:18.140Z,8.19
2016-05-17T00:01:18.284Z,8.15
2016-05-17T00:02:18.287Z,8.13
2016-05-17T00:03:18.273Z,8.23
2016-05-17T00:04:18.261Z,8.23
2016-05-17T00:05:18.138Z,8.18
2016-05-17T00:06:18.266Z,8.19
2016-05-17T00:07:18.488Z,8.15
2016-05-17T00:08:18.255Z,8.2
2016-05-17T00:09:18.274Z,8.15
2016-05-17T00:10:18.261Z,8.12
2016-05-17T00:11:18.092Z,8.18
2016-05-17T00:12:18.095Z,8.24
2016-05-17T00:13:18.254Z,8.2
2016-05-17T00:14:18.085Z,8.27
2016-05-17T00:15:18.274Z,8.19
2016-05-17T00:16:18.262Z,8.26
2016-05-17T00:17:18.249Z,8.24
2016-05-17T00:18:18.235Z,8.28
2016-05-17T00:19:18.239Z,8.31
2016-05-17T00:20:18.069Z,8.34
2016-05-17T00:21:18.213Z,8.38
2016-05-17T00:22:18.279Z,8.37
2016-05-17T00:23:18.218Z,8.41
2016-05-17T00:24:18.237Z,8.48
2016-05-17T00:25:18.223Z,8.44
2016-05-17T00:26:18.070Z,8.38
2016-05-17T00:27:18.057Z,8.45
2016-05-17T00:28:18.060Z,8.44
2016-05-17T00:29:18.047Z,8.44
2016-05-17T00:30:18.206Z,8.44
2016-05-17T00:31:18.223Z,8.41
2016-05-17T00:32:18.040Z,8.42
2016-05-17T00:33:18.198Z,8.44
2016-05-17T00:34:18.028Z,8.45
2016-05-17T00:35:18.047Z,8.42
2016-05-17T00:36:18.300Z,8.38
2016-05-17T00:37:18.319Z,8.48
2016-05-17T00:38:18.056Z,8.41
2016-05-17T00:39:18.183Z,8.42
2016-05-17T00:40:18.030Z,8.41
2016-05-17T00:41:18.172Z,8.33
2016-05-17T00:42:18.035Z,8.42
2016-05-17T00:43:18.163Z,8.42
2016-05-17T00:44:18.009Z,8.31
2016-05-17T00:45:18.169Z,8.33
2016-05-17T00:46:18.171Z,8.38
2016-05-17T00:47:18.174Z,8.36
2016-05-17T00:48:18.161Z,8.42
2016-05-17T00:49:18.179Z,8.37
2016-05-17T00:50:18.181Z,8.44
2016-05-17T00:51:18.168Z,8.45
2016-05-17T00:52:18.359Z,8.42
2016-05-17T00:53:18.002Z,8.41
2016-05-17T00:54:18.145Z,8.44
2016-05-17T00:55:18.007Z,8.42
2016-05-17T00:56:18.135Z,8.41
2016-05-17T00:57:18.137Z,8.48
2016-05-17T00:58:18.125Z,8.52
2016-05-17T00:59:18.128Z,8.42
2016-05-17T01:00:18.146Z,8.51
2016-05-17T01:01:18.118Z,8.52
2016-05-17T01:02:18.104Z,8.49
2016-05-17T01:03:17.951Z,8.51
2016-05-17T01:04:18.141Z,8.46
2016-05-17T01:05:18.112Z,8.53
2016-05-17T01:06:17.974Z,8.53
2016-05-17T01:07:18.118Z,8.53
2016-05-17T01:08:18.105Z,8.52
2016-05-17T01:09:18.123Z,8.53
2016-05-17T01:10:18.111Z,8.53
2016-05-17T01:11:17.956Z,8.53
2016-05-17T01:12:17.959Z,8.55
2016-05-17T01:13:18.087Z,8.55
2016-05-17T01:14:18.121Z,8.48
2016-05-17T01:15:18.092Z,8.49
2016-05-17T01:16:18.095Z,8.49
2016-05-17T01:17:18.083Z,8.52
2016-05-17T01:18:18.085Z,8.52
2016-05-17T01:19:18.088Z,8.49
2016-05-17T01:20:17.919Z,8.46
2016-05-17T01:21:18.093Z,8.49
2016-05-17T01:22:18.283Z,8.38
2016-05-17T01:23:18.082Z,8.41
2016-05-17T01:24:18.070Z,8.42
2016-05-17T01:25:18.057Z,8.42
2016-05-17T01:26:18.076Z,8.41
2016-05-17T01:27:18.046Z,8.41
2016-05-17T01:28:18.065Z,8.41
2016-05-17T01:29:18.051Z,8.41
2016-05-17T01:30:18.054Z,8.36
2016-05-17T01:31:17.932Z,8.42
2016-05-17T01:32:18.059Z,8.38
2016-05-17T01:33:17.891Z,8.46
2016-05-17T01:34:18.034Z,8.48
2016-05-17T01:35:17.896Z,8.38
2016-05-17T01:36:18.103Z,8.38
2016-05-17T01:37:18.276Z,8.52
2016-05-17T01:38:18.029Z,8.49
2016-05-17T01:39:18.016Z,8.38
2016-05-17T01:40:18.034Z,8.49
2016-05-17T01:41:18.006Z,8.38
2016-05-17T01:42:17.884Z,8.41
2016-05-17T01:43:18.027Z,8.38
2016-05-17T01:44:17.999Z,8.38
2016-05-17T01:45:17.876Z,8.41
2016-05-17T01:46:18.050Z,8.44
2016-05-17T01:47:18.022Z,8.37
2016-05-17T01:48:17.852Z,8.42
2016-05-17T01:49:17.997Z,8.45
2016-05-17T01:50:17.827Z,8.42
2016-05-17T01:51:18.346Z,8.45
2016-05-17T01:52:17.989Z,8.41
2016-05-17T01:53:17.835Z,8.45
2016-05-17T01:54:17.838Z,8.44
2016-05-17T01:55:17.981Z,8.42
2016-05-17T01:56:17.999Z,8.41
2016-05-17T01:57:17.971Z,8.38
2016-05-17T01:58:17.958Z,8.37
2016-05-17T01:59:17.960Z,8.38
2016-05-17T02:00:17.979Z,8.37
2016-05-17T02:01:17.966Z,8.27
2016-05-17T02:02:17.968Z,8.38
2016-05-17T02:03:17.987Z,8.42
2016-05-17T02:04:17.958Z,8.38
2016-05-17T02:05:17.946Z,8.42
2016-05-17T02:06:17.823Z,8.38
2016-05-17T02:07:17.967Z,8.48
2016-05-17T02:08:17.954Z,8.38
2016-05-17T02:09:17.972Z,8.52
2016-05-17T02:10:17.647Z,8.55
2016-05-17T02:11:17.947Z,8.58
2016-05-17T02:12:17.917Z,8.46
2016-05-17T02:13:17.936Z,8.52
2016-05-17T02:14:17.939Z,8.56
2016-05-17T02:15:17.925Z,8.45
2016-05-17T02:16:17.913Z,8.58
2016-05-17T02:17:17.931Z,8.55
2016-05-17T02:18:17.886Z,8.52
2016-05-17T02:19:17.922Z,8.56
2016-05-17T02:20:17.907Z,8.58
2016-05-17T02:21:17.910Z,8.52
2016-05-17T02:22:17.929Z,8.53
2016-05-17T02:23:17.900Z,8.67
2016-05-17T02:24:17.903Z,8.64
2016-05-17T02:25:17.749Z,8.51
2016-05-17T02:26:17.893Z,8.42
2016-05-17T02:27:17.724Z,8.49
2016-05-17T02:28:17.757Z,8.49
2016-05-17T02:29:17.885Z,8.52
2016-05-17T02:30:17.873Z,8.52
2016-05-17T02:31:17.860Z,8.55
2016-05-17T02:32:17.628Z,8.53
2016-05-17T02:33:17.787Z,8.56
2016-05-17T02:34:17.554Z,8.53
2016-05-17T02:35:17.714Z,8.52
2016-05-17T02:36:17.856Z,8.55
2016-05-17T02:37:18.188Z,8.51
2016-05-17T02:38:17.550Z,8.53
2016-05-17T02:39:17.693Z,8.49
2016-05-17T02:40:17.603Z,8.42
2016-05-17T02:41:17.870Z,8.42
2016-05-17T02:42:17.873Z,8.41
2016-05-17T02:43:17.844Z,8.37
2016-05-17T02:44:17.519Z,8.31
2016-05-17T02:45:17.834Z,8.36
2016-05-17T02:46:17.869Z,8.41
2016-05-17T02:47:17.856Z,8.31
2016-05-17T02:48:17.842Z,8.41
2016-05-17T02:49:17.829Z,8.36
2016-05-17T02:50:17.832Z,8.41
2016-05-17T02:51:17.695Z,8.42
2016-05-17T02:52:17.838Z,8.41
2016-05-17T02:53:17.669Z,8.41
2016-05-17T02:54:17.812Z,8.36
2016-05-17T02:55:17.799Z,8.38
2016-05-17T02:56:17.802Z,8.37
2016-05-17T02:57:17.788Z,8.38
2016-05-17T02:58:17.807Z,8.37
2016-05-17T02:59:17.810Z,8.36
2016-05-17T03:00:17.797Z,8.41
2016-05-17T03:01:17.643Z,8.31
2016-05-17T03:02:17.787Z,8.27
2016-05-17T03:03:17.789Z,8.36
2016-05-17T03:04:17.807Z,8.33
2016-05-17T03:05:17.482Z,8.27
2016-05-17T03:06:17.797Z,8.38
2016-05-17T03:07:17.659Z,8.37
2016-05-17T03:08:17.771Z,8.44
2016-05-17T03:09:17.773Z,8.41
2016-05-17T03:10:17.776Z,8.38
2016-05-17T03:11:17.748Z,8.38
2016-05-17T03:12:17.611Z,8.49
2016-05-17T03:13:17.784Z,8.53
2016-05-17T03:14:17.616Z,8.49
2016-05-17T03:15:17.758Z,8.58
2016-05-17T03:16:17.747Z,8.55
2016-05-17T03:17:17.608Z,8.56
2016-05-17T03:18:17.752Z,8.6
2016-05-17T03:19:17.739Z,8.55
2016-05-17T03:20:17.725Z,8.49
2016-05-17T03:21:18.134Z,8.61
2016-05-17T03:22:17.746Z,8.53
2016-05-17T03:23:17.749Z,8.6
2016-05-17T03:24:17.596Z,8.58
2016-05-17T03:25:17.566Z,8.61
2016-05-17T03:26:18.273Z,8.56
2016-05-17T03:27:17.901Z,8.6
2016-05-17T03:28:17.732Z,8.56
2016-05-17T03:29:17.734Z,8.58
2016-05-17T03:30:17.721Z,8.56
2016-05-17T03:31:17.551Z,8.6
2016-05-17T03:32:17.696Z,8.6
2016-05-17T03:33:17.714Z,8.55
2016-05-17T03:34:17.716Z,8.6
2016-05-17T03:35:17.563Z,8.6
2016-05-17T03:36:17.706Z,8.58
2016-05-17T03:37:18.271Z,8.55
2016-05-17T03:38:17.695Z,8.63
2016-05-17T03:39:17.699Z,8.71
2016-05-17T03:40:17.686Z,8.64
2016-05-17T03:41:17.689Z,8.69
2016-05-17T03:42:17.691Z,8.74
2016-05-17T03:43:17.694Z,8.73
2016-05-17T03:44:17.525Z,8.82
2016-05-17T03:45:17.683Z,8.78
2016-05-17T03:46:17.670Z,8.71
2016-05-17T03:47:17.672Z,8.7
2016-05-17T03:48:17.504Z,8.69
2016-05-17T03:49:17.663Z,8.78
2016-05-17T03:50:17.665Z,8.71
2016-05-17T03:51:17.497Z,8.69
2016-05-17T03:52:18.343Z,8.76
2016-05-17T03:53:17.642Z,8.69
2016-05-17T03:54:17.644Z,8.79
2016-05-17T03:55:17.679Z,8.71
2016-05-17T03:56:17.682Z,8.71
2016-05-17T03:57:17.638Z,8.74
2016-05-17T03:58:17.640Z,8.84
2016-05-17T03:59:17.674Z,8.76
2016-05-17T04:00:17.646Z,8.69
2016-05-17T04:01:17.632Z,8.67
2016-05-17T04:02:17.651Z,8.74
2016-05-17T04:03:17.653Z,8.71
2016-05-17T04:04:17.626Z,8.7
2016-05-17T04:05:17.629Z,8.69
2016-05-17T04:06:17.631Z,8.71
2016-05-17T04:07:17.462Z,8.84
2016-05-17T04:08:17.620Z,8.73
2016-05-17T04:09:17.623Z,8.69
2016-05-17T04:10:17.641Z,8.81
2016-05-17T04:11:17.456Z,8.82
2016-05-17T04:12:17.600Z,8.81
2016-05-17T04:13:17.603Z,8.84
2016-05-17T04:14:17.605Z,8.78
2016-05-17T04:15:17.436Z,8.81
2016-05-17T04:16:17.611Z,8.88
2016-05-17T04:17:17.613Z,8.88
2016-05-17T04:18:17.616Z,8.87
2016-05-17T04:19:17.586Z,8.89
2016-05-17T04:20:17.575Z,8.87
2016-05-17T04:21:17.437Z,8.89
2016-05-17T04:22:17.455Z,8.89
2016-05-17T04:23:17.583Z,8.92
2016-05-17T04:24:17.585Z,8.88
2016-05-17T04:25:17.572Z,8.88
2016-05-17T04:26:17.418Z,8.81
2016-05-17T04:27:17.546Z,8.85
2016-05-17T04:28:17.580Z,8.88
2016-05-17T04:29:17.583Z,8.82
2016-05-17T04:30:17.554Z,8.85
2016-05-17T04:31:17.557Z,8.78
2016-05-17T04:32:17.560Z,8.79
2016-05-17T04:33:17.546Z,8.85
2016-05-17T04:34:17.565Z,8.84
2016-05-17T04:35:17.536Z,8.81
2016-05-17T04:36:17.555Z,8.87
2016-05-17T04:37:17.511Z,8.88
2016-05-17T04:38:17.420Z,8.85
2016-05-17T04:39:17.548Z,8.82
2016-05-17T04:40:17.393Z,8.85
2016-05-17T04:41:17.521Z,8.88
2016-05-17T04:42:17.539Z,8.91
2016-05-17T04:43:17.511Z,8.78
2016-05-17T04:44:17.545Z,8.79
2016-05-17T04:45:17.532Z,8.81
2016-05-17T04:46:17.520Z,8.81
2016-05-17T04:47:17.537Z,8.81
2016-05-17T04:48:17.525Z,8.71
2016-05-17T04:49:17.371Z,8.78
2016-05-17T04:50:17.514Z,8.79
2016-05-17T04:51:17.360Z,8.82
2016-05-17T04:52:17.630Z,8.88
2016-05-17T04:53:17.523Z,8.87
2016-05-17T04:54:17.510Z,8.94
2016-05-17T04:55:17.513Z,8.95
2016-05-17T04:56:17.343Z,8.99
2016-05-17T04:57:17.502Z,8.87
2016-05-17T04:58:17.505Z,8.84
2016-05-17T04:59:17.491Z,8.89
2016-05-17T05:00:17.322Z,8.85
2016-05-17T05:01:17.482Z,8.88
2016-05-17T05:02:17.500Z,8.91
2016-05-17T05:03:17.315Z,8.92
2016-05-17T05:04:17.333Z,8.99
2016-05-17T05:05:17.492Z,8.99
2016-05-17T05:06:17.463Z,9.06
2016-05-17T05:07:17.481Z,9.08
2016-05-17T05:08:17.328Z,9.11
2016-05-17T05:09:17.478Z,9.11
2016-05-17T05:10:17.523Z,9.1
2016-05-17T05:11:17.569Z,9.06
2016-05-17T05:12:17.614Z,9.06
2016-05-17T05:13:17.660Z,9.04
2016-05-17T05:14:17.723Z,9.06
2016-05-17T05:15:17.694Z,9.06
2016-05-17T05:16:17.713Z,9.1
2016-05-17T05:17:17.699Z,9.04
2016-05-17T05:18:17.734Z,9.18
2016-05-17T05:19:17.731Z,9.11
2016-05-17T05:20:17.755Z,9.11
2016-05-17T05:21:17.747Z,9.03
2016-05-17T05:22:17.864Z,9.1
2016-05-17T05:23:17.746Z,9.1
2016-05-17T05:24:17.753Z,9.08
2016-05-17T05:25:17.790Z,9.04
2016-05-17T05:26:17.623Z,9.1
2016-05-17T05:27:17.752Z,9.11
2016-05-17T05:28:17.757Z,9.13
2016-05-17T05:29:17.745Z,9.06
2016-05-17T05:30:17.795Z,9.08
2016-05-17T05:31:17.751Z,9.06
2016-05-17T05:32:17.739Z,9.1
2016-05-17T05:33:17.743Z,9.11
2016-05-17T05:34:17.745Z,9.13
2016-05-17T05:35:17.734Z,9.14
2016-05-17T05:36:17.581Z,9.18
2016-05-17T05:37:17.771Z,9.14
2016-05-17T05:38:17.571Z,9.18
2016-05-17T05:39:17.746Z,9.32
2016-05-17T05:40:17.732Z,9.25
2016-05-17T05:41:17.720Z,9.34
2016-05-17T05:42:17.723Z,9.28
2016-05-17T05:43:17.710Z,9.44
2016-05-17T05:44:17.571Z,9.41
2016-05-17T05:45:17.715Z,9.48
2016-05-17T05:46:17.577Z,9.47
2016-05-17T05:47:17.720Z,9.36
2016-05-17T05:48:17.724Z,9.41
2016-05-17T05:49:17.725Z,9.47
2016-05-17T05:50:17.759Z,9.47
2016-05-17T05:51:17.715Z,9.61
2016-05-17T05:52:17.718Z,9.55
2016-05-17T05:53:17.737Z,9.59
2016-05-17T05:54:17.740Z,9.54
2016-05-17T05:55:17.679Z,9.62
2016-05-17T05:56:17.698Z,9.66
2016-05-17T05:57:17.701Z,9.65
2016-05-17T05:58:17.687Z,9.65
2016-05-17T05:59:17.690Z,9.77
2016-05-17T06:00:17.537Z,9.76
2016-05-17T06:01:17.695Z,9.87
2016-05-17T06:02:17.683Z,9.91
2016-05-17T06:03:17.545Z,9.94
2016-05-17T06:04:17.516Z,9.98
2016-05-17T06:05:17.675Z,9.99
2016-05-17T06:06:17.677Z,10.26
2016-05-17T06:07:17.883Z,10.19
2016-05-17T06:08:17.668Z,10.31
2016-05-17T06:09:17.527Z,10.4
2016-05-17T06:10:17.530Z,10.56
2016-05-17T06:11:17.676Z,10.51
2016-05-17T06:12:17.678Z,10.61
2016-05-17T06:13:17.678Z,10.74
2016-05-17T06:14:17.649Z,10.69
2016-05-17T06:15:17.512Z,10.82
2016-05-17T06:16:17.655Z,10.94
2016-05-17T06:17:17.657Z,11.05
2016-05-17T06:18:17.676Z,11.02
2016-05-17T06:19:17.648Z,11.1
2016-05-17T06:20:17.665Z,11.11
2016-05-17T06:21:17.497Z,11.08
2016-05-17T06:22:18.173Z,11.11
2016-05-17T06:23:17.517Z,11.19
2016-05-17T06:24:17.708Z,11.14
2016-05-17T06:25:17.664Z,11.17
2016-05-17T06:26:17.667Z,11.35
2016-05-17T06:27:17.654Z,11.33
2016-05-17T06:28:17.657Z,11.35
2016-05-17T06:29:17.642Z,11.33
2016-05-17T06:30:17.646Z,11.44
2016-05-17T06:31:17.648Z,11.41
2016-05-17T06:32:17.636Z,11.51
2016-05-17T06:33:17.654Z,11.43
2016-05-17T06:34:17.657Z,11.43
2016-05-17T06:35:17.519Z,11.62
2016-05-17T06:36:17.647Z,11.6
2016-05-17T06:37:17.665Z,11.73
2016-05-17T06:38:17.667Z,11.81
2016-05-17T06:39:17.639Z,11.95
2016-05-17T06:40:17.641Z,12.1
2016-05-17T06:41:17.644Z,12.15
2016-05-17T06:42:17.663Z,12.35
2016-05-17T06:43:17.666Z,12.32
2016-05-17T06:44:17.668Z,12.36
2016-05-17T06:45:17.733Z,12.47
2016-05-17T06:46:17.752Z,12.58
2016-05-17T06:47:17.645Z,12.53
2016-05-17T06:48:17.507Z,12.64
2016-05-17T06:49:17.650Z,12.67
2016-05-17T06:50:17.668Z,12.62
2016-05-17T06:51:17.499Z,12.65
2016-05-17T06:52:17.580Z,12.67
2016-05-17T06:53:17.661Z,12.75
2016-05-17T06:54:17.679Z,12.78
2016-05-17T06:55:17.651Z,12.87
2016-05-17T06:56:17.669Z,12.98
2016-05-17T06:57:17.672Z,12.97
2016-05-17T06:58:17.674Z,13.01
2016-05-17T06:59:17.662Z,13.01
2016-05-17T07:00:17.492Z,13.01
2016-05-17T07:01:17.683Z,13.11
2016-05-17T07:02:17.685Z,13.11
2016-05-17T07:03:17.688Z,13.16
2016-05-17T07:04:17.519Z,13.23
2016-05-17T07:05:17.505Z,13.31
2016-05-17T07:06:17.524Z,13.35
2016-05-17T07:07:17.949Z,13.39
2016-05-17T07:08:17.514Z,13.37
2016-05-17T07:09:17.547Z,13.44
2016-05-17T07:10:17.691Z,13.5
2016-05-17T07:11:17.677Z,13.59
2016-05-17T07:12:17.680Z,13.71
2016-05-17T07:13:17.699Z,13.9
2016-05-17T07:14:17.686Z,14.08
2016-05-17T07:15:17.688Z,14.22
2016-05-17T07:16:17.691Z,14.41
2016-05-17T07:17:17.710Z,14.5
2016-05-17T07:18:17.541Z,14.58
2016-05-17T07:19:17.699Z,14.63
2016-05-17T07:20:17.702Z,14.88
2016-05-17T07:21:17.704Z,14.92
2016-05-17T07:22:17.645Z,15.06
2016-05-17T07:23:17.710Z,15.21
2016-05-17T07:24:17.728Z,15.35
2016-05-17T07:25:17.716Z,15.47
2016-05-17T07:26:17.453Z,15.58
2016-05-17T07:27:17.737Z,15.54
2016-05-17T07:28:17.724Z,15.52
2016-05-17T07:29:17.742Z,15.47
2016-05-17T07:30:17.729Z,15.37
2016-05-17T07:31:17.763Z,15.28
2016-05-17T07:32:17.672Z,15.4
2016-05-17T07:33:17.815Z,15.61
2016-05-17T07:34:17.584Z,15.82
2016-05-17T07:35:17.586Z,16.17
2016-05-17T07:36:17.761Z,16.47
2016-05-17T07:37:18.030Z,16.54
2016-05-17T07:38:17.797Z,16.54
2016-05-17T07:39:17.769Z,16.68
2016-05-17T07:40:17.788Z,16.68
2016-05-17T07:41:17.618Z,16.76
2016-05-17T07:42:17.636Z,17.01
2016-05-17T07:43:17.796Z,17.06
2016-05-17T07:44:17.798Z,17.19
2016-05-17T07:45:17.801Z,17.16
2016-05-17T07:46:17.662Z,17.2
2016-05-17T07:47:17.807Z,17.05
2016-05-17T07:48:17.810Z,16.76
2016-05-17T07:49:17.812Z,16.56
2016-05-17T07:50:17.830Z,16.31
2016-05-17T07:51:17.832Z,16.05
2016-05-17T07:52:18.460Z,15.88
2016-05-17T07:53:17.838Z,15.83
2016-05-17T07:54:17.668Z,16.01
2016-05-17T07:55:17.671Z,16.09
2016-05-17T07:56:17.830Z,16.05
2016-05-17T07:57:17.865Z,15.91
2016-05-17T07:58:17.851Z,15.67
2016-05-17T07:59:17.870Z,15.33
2016-05-17T08:00:17.717Z,15.03
2016-05-17T08:01:17.875Z,14.79
2016-05-17T08:02:17.878Z,14.58
2016-05-17T08:03:17.865Z,14.44
2016-05-17T08:04:20.867Z,14.33
2016-05-17T08:05:17.886Z,14.35
2016-05-17T08:06:17.903Z,14.29
2016-05-17T08:07:17.751Z,14.2
2016-05-17T08:08:17.909Z,14.28
2016-05-17T08:09:17.896Z,14.08
2016-05-17T08:10:17.900Z,14
2016-05-17T08:11:17.917Z,13.79
2016-05-17T08:12:17.905Z,13.87
2016-05-17T08:13:17.908Z,13.99
2016-05-17T08:14:17.925Z,14.07
2016-05-17T08:15:17.913Z,14.14
2016-05-17T08:16:17.915Z,14.25
2016-05-17T08:17:17.918Z,14.28
2016-05-17T08:18:17.936Z,14.5
2016-05-17T08:19:17.938Z,14.65
2016-05-17T08:20:17.785Z,15.14
2016-05-17T08:21:17.976Z,15.97
2016-05-17T08:22:18.071Z,16.42
2016-05-17T08:23:17.950Z,16.65
2016-05-17T08:24:17.796Z,16.53
2016-05-17T08:25:17.940Z,16.42
2016-05-17T08:26:17.942Z,16.08
2016-05-17T08:27:17.945Z,15.86
2016-05-17T08:28:17.948Z,15.61
2016-05-17T08:29:17.653Z,15.51
2016-05-17T08:30:17.828Z,15.49
2016-05-17T08:31:17.987Z,15.4
2016-05-17T08:32:17.974Z,15.39
2016-05-17T08:33:17.961Z,15.33
2016-05-17T08:34:17.979Z,15.33
2016-05-17T08:35:17.998Z,15.39
2016-05-17T08:36:17.985Z,15.22
2016-05-17T08:37:18.159Z,15.39
2016-05-17T08:38:18.006Z,15.4
2016-05-17T08:39:17.993Z,15.46
2016-05-17T08:40:17.980Z,15.4
2016-05-17T08:41:17.998Z,15.27
2016-05-17T08:42:17.876Z,15.14
2016-05-17T08:43:18.019Z,15.04
2016-05-17T08:44:18.038Z,14.99
2016-05-17T08:45:18.024Z,14.92
2016-05-17T08:46:17.886Z,14.65
2016-05-17T08:47:18.030Z,14.81
2016-05-17T08:48:18.049Z,14.65
2016-05-17T08:49:18.019Z,14.66
2016-05-17T08:50:18.022Z,14.59
2016-05-17T08:51:18.024Z,14.6
2016-05-17T08:52:17.902Z,14.63
2016-05-17T08:53:18.062Z,14.58
2016-05-17T08:54:18.049Z,14.58
2016-05-17T08:55:18.036Z,14.54
2016-05-17T08:56:17.898Z,14.58
2016-05-17T08:57:18.057Z,14.62
2016-05-17T08:58:18.060Z,14.68
2016-05-17T08:59:18.062Z,14.55
2016-05-17T09:00:18.049Z,14.58
2016-05-17T09:01:18.068Z,14.54
2016-05-17T09:02:18.070Z,14.62
2016-05-17T09:03:18.057Z,14.58
2016-05-17T09:04:18.075Z,14.62
2016-05-17T09:05:18.062Z,14.58
2016-05-17T09:06:18.065Z,14.68
2016-05-17T09:07:18.771Z,14.72
2016-05-17T09:08:18.070Z,14.63
2016-05-17T09:09:17.917Z,14.69
2016-05-17T09:10:18.092Z,14.68
2016-05-17T09:11:18.079Z,14.66
2016-05-17T09:12:17.956Z,14.62
2016-05-17T09:13:33.430Z,14.6
2016-05-17T09:14:18.102Z,14.69
2016-05-17T09:15:18.122Z,14.77
2016-05-17T09:16:17.796Z,14.81
2016-05-17T09:17:18.095Z,14.77
2016-05-17T09:18:18.097Z,14.72
2016-05-17T09:19:17.960Z,14.7
2016-05-17T09:20:17.946Z,14.65
2016-05-17T09:21:18.121Z,14.54
2016-05-17T09:22:18.390Z,14.6
2016-05-17T09:23:18.111Z,14.51
2016-05-17T09:24:17.974Z,14.53
2016-05-17T09:25:17.960Z,14.58
2016-05-17T09:26:18.135Z,14.5
2016-05-17T09:27:18.122Z,14.6
2016-05-17T09:28:18.140Z,14.63
2016-05-17T09:29:17.971Z,14.78
2016-05-17T09:30:18.146Z,14.68
2016-05-17T09:31:17.976Z,14.72
2016-05-17T09:32:18.135Z,14.81
2016-05-17T09:33:18.138Z,14.77
2016-05-17T09:34:18.016Z,14.73
2016-05-17T09:35:17.987Z,14.78
2016-05-17T09:36:18.162Z,14.84
2016-05-17T09:37:18.446Z,14.84
2016-05-17T09:38:17.980Z,14.99
2016-05-17T09:39:17.998Z,14.94
2016-05-17T09:40:18.157Z,14.91
2016-05-17T09:41:18.019Z,14.97
2016-05-17T09:42:18.178Z,15.02
2016-05-17T09:43:18.197Z,15
2016-05-17T09:44:18.167Z,15.18
2016-05-17T09:45:18.170Z,15.27
2016-05-17T09:46:18.016Z,15.42
2016-05-17T09:47:18.004Z,15.42
2016-05-17T09:48:18.178Z,15.54
2016-05-17T09:49:18.180Z,15.62
2016-05-17T09:50:18.183Z,15.51
2016-05-17T09:51:18.171Z,15.61
2016-05-17T09:52:18.018Z,15.54
2016-05-17T09:53:18.192Z,15.65
2016-05-17T09:54:18.195Z,15.62
2016-05-17T09:55:18.212Z,15.83
2016-05-17T09:56:18.216Z,15.84
2016-05-17T09:57:18.203Z,15.92
2016-05-17T09:58:18.205Z,15.83
2016-05-17T09:59:18.224Z,15.67
2016-05-17T10:00:18.195Z,15.64
2016-05-17T10:01:18.213Z,15.43
2016-05-17T10:02:18.201Z,15.39
2016-05-17T10:03:18.078Z,15.24
2016-05-17T10:04:18.221Z,15.11
2016-05-17T10:05:18.240Z,15.03
2016-05-17T10:06:18.226Z,15.02
2016-05-17T10:07:18.542Z,15.03
2016-05-17T10:08:18.232Z,14.96
2016-05-17T10:09:18.251Z,14.88
2016-05-17T10:10:18.237Z,14.63
2016-05-17T10:11:18.240Z,14.51
2016-05-17T10:12:18.242Z,14.4
2016-05-17T10:13:18.246Z,14.36
2016-05-17T10:14:18.248Z,14.25
2016-05-17T10:15:18.251Z,14.14
2016-05-17T10:16:18.098Z,14.05
2016-05-17T10:17:18.100Z,14.03
2016-05-17T10:18:18.103Z,13.97
2016-05-17T10:19:18.278Z,13.99
2016-05-17T10:20:18.264Z,14.14
2016-05-17T10:21:18.096Z,14.22
2016-05-17T10:22:18.255Z,14.26
2016-05-17T10:23:18.132Z,14.3
2016-05-17T10:24:18.135Z,14.4
2016-05-17T10:25:18.246Z,14.44
2016-05-17T10:26:18.110Z,14.48
2016-05-17T10:27:18.283Z,14.4
2016-05-17T10:28:18.254Z,14.43
2016-05-17T10:29:18.289Z,14.44
2016-05-17T10:30:18.276Z,14.44
2016-05-17T10:31:18.293Z,14.43
2016-05-17T10:32:18.282Z,14.51
2016-05-17T10:33:18.284Z,14.43
2016-05-17T10:34:18.318Z,14.35
2016-05-17T10:35:18.274Z,14.44
2016-05-17T10:36:18.292Z,14.48
2016-05-17T10:37:18.653Z,14.51
2016-05-17T10:38:18.298Z,14.43
2016-05-17T10:39:18.284Z,14.58
2016-05-17T10:40:18.303Z,14.68
2016-05-17T10:41:18.290Z,14.65
2016-05-17T10:42:18.309Z,14.66
2016-05-17T10:43:18.295Z,14.72
2016-05-17T10:44:18.314Z,14.81
2016-05-17T10:45:18.161Z,14.78
2016-05-17T10:46:18.319Z,14.85
2016-05-17T10:47:18.306Z,14.77
2016-05-17T10:48:18.309Z,14.73
2016-05-17T10:49:18.296Z,14.91
2016-05-17T10:50:18.767Z,14.96
2016-05-17T10:51:18.348Z,15.07
2016-05-17T10:52:18.164Z,15.11
2016-05-17T10:53:18.322Z,15.19
2016-05-17T10:54:18.341Z,15.29
2016-05-17T10:55:18.327Z,15.46
2016-05-17T10:56:18.346Z,15.44
2016-05-17T10:57:18.333Z,15.43
2016-05-17T10:58:18.195Z,15.46
2016-05-17T10:59:18.338Z,15.61
2016-05-17T11:00:18.341Z,15.83
2016-05-17T11:01:18.329Z,16.05
2016-05-17T11:02:18.362Z,16.17
2016-05-17T11:03:18.334Z,16.09
2016-05-17T11:04:18.179Z,16.38
2016-05-17T11:05:18.026Z,16.51
2016-05-17T11:06:18.357Z,16.71
2016-05-17T11:07:18.547Z,16.87
2016-05-17T11:08:18.222Z,16.97
2016-05-17T11:09:18.350Z,17.14
2016-05-17T11:10:18.368Z,17.3
2016-05-17T11:11:18.089Z,17.31
2016-05-17T11:12:18.373Z,17.56
2016-05-17T11:13:18.203Z,17.57
2016-05-17T11:14:18.363Z,17.59
2016-05-17T11:15:18.381Z,17.38
2016-05-17T11:16:18.243Z,17.15
2016-05-17T11:17:18.074Z,17.06
2016-05-17T11:18:18.405Z,16.84
2016-05-17T11:19:18.392Z,16.9
2016-05-17T11:20:18.426Z,16.75
2016-05-17T11:21:18.414Z,16.74
2016-05-17T11:22:18.196Z,16.53
2016-05-17T11:23:18.433Z,16.57
2016-05-17T11:24:18.406Z,16.51
2016-05-17T11:25:18.424Z,16.51
2016-05-17T11:26:18.271Z,16.56
2016-05-17T11:27:18.274Z,16.46
2016-05-17T11:28:18.447Z,16.33
2016-05-17T11:29:18.294Z,16.31
2016-05-17T11:30:18.281Z,16.38
2016-05-17T11:31:18.440Z,16.41
2016-05-17T11:32:18.443Z,16.5
2016-05-17T11:33:18.446Z,16.47
2016-05-17T11:34:18.463Z,16.43
2016-05-17T11:35:18.466Z,16.39
2016-05-17T11:36:18.454Z,16.39
2016-05-17T11:37:18.175Z,16.46
2016-05-17T11:38:18.458Z,16.29
2016-05-17T11:39:18.477Z,16.09
2016-05-17T11:40:18.479Z,15.75
2016-05-17T11:41:18.467Z,15.59
2016-05-17T11:42:18.501Z,15.52
2016-05-17T11:43:18.472Z,15.54
2016-05-17T11:44:18.334Z,15.58
2016-05-17T11:45:18.508Z,15.52
2016-05-17T11:46:18.511Z,15.59
2016-05-17T11:47:18.358Z,15.68
2016-05-17T11:48:18.501Z,15.83
2016-05-17T11:49:18.503Z,16.08
2016-05-17T11:50:18.366Z,16.23
2016-05-17T11:51:18.525Z,16.35
2016-05-17T11:52:18.855Z,16.74
2016-05-17T11:53:18.530Z,16.86
2016-05-17T11:54:18.533Z,16.99
2016-05-17T11:55:18.363Z,17.2
2016-05-17T11:56:18.382Z,17.38
2016-05-17T11:57:18.525Z,17.3
2016-05-17T11:58:18.543Z,17.31
2016-05-17T11:59:18.375Z,17.27
2016-05-17T12:00:18.409Z,17.2
2016-05-17T12:01:18.535Z,17.08
2016-05-17T12:02:18.570Z,17.04
2016-05-17T12:03:18.385Z,16.93
2016-05-17T12:04:18.404Z,16.83
2016-05-17T12:05:18.562Z,16.86
2016-05-17T12:06:18.566Z,16.84
2016-05-17T12:07:18.568Z,16.83
2016-05-17T12:08:18.570Z,16.86
2016-05-17T12:09:18.620Z,16.87
2016-05-17T12:10:18.435Z,16.76
2016-05-17T12:11:18.609Z,16.76
2016-05-17T12:12:18.581Z,16.76
2016-05-17T12:13:18.459Z,16.83
2016-05-17T12:14:18.587Z,16.86
2016-05-17T12:15:18.589Z,16.74
2016-05-17T12:16:18.608Z,16.69
2016-05-17T12:17:18.454Z,16.79
2016-05-17T12:18:18.613Z,16.83
2016-05-17T12:19:18.444Z,16.83
2016-05-17T12:20:18.619Z,16.93
2016-05-17T12:21:18.622Z,17.02
2016-05-17T12:22:19.233Z,16.87
2016-05-17T12:23:18.627Z,16.75
2016-05-17T12:24:18.644Z,16.71
2016-05-17T12:25:18.647Z,16.74
2016-05-17T12:26:18.494Z,16.78
2016-05-17T12:27:18.497Z,16.9
2016-05-17T12:28:18.640Z,16.9
2016-05-17T12:29:18.643Z,16.87
2016-05-17T12:30:18.677Z,16.91
2016-05-17T12:31:18.664Z,16.9
2016-05-17T12:32:18.666Z,16.93
2016-05-17T12:33:18.669Z,16.99
2016-05-17T12:34:18.672Z,17.04
2016-05-17T12:35:18.690Z,17.04
2016-05-17T12:36:18.505Z,17.11
2016-05-17T12:37:19.148Z,17.16
2016-05-17T12:38:18.526Z,17.33
2016-05-17T12:39:18.373Z,17.31
2016-05-17T12:40:18.704Z,17.31
2016-05-17T12:41:18.706Z,17.31
2016-05-17T12:42:18.709Z,17.34
2016-05-17T12:43:18.696Z,17.42
2016-05-17T12:44:18.699Z,17.39
2016-05-17T12:45:18.717Z,17.31
2016-05-17T12:46:18.720Z,17.29
2016-05-17T12:47:18.707Z,17.39
2016-05-17T12:48:18.741Z,17.39
2016-05-17T12:49:18.555Z,17.44
2016-05-17T12:50:18.730Z,17.48
2016-05-17T12:51:18.592Z,17.54
2016-05-17T12:52:18.564Z,17.6
2016-05-17T12:53:18.722Z,17.57
2016-05-17T12:54:18.741Z,17.44
2016-05-17T12:55:18.588Z,17.39
2016-05-17T12:56:18.778Z,17.29
2016-05-17T12:57:18.750Z,17.23
2016-05-17T12:58:18.596Z,17.31
2016-05-17T12:59:18.770Z,17.33
2016-05-17T13:00:18.460Z,17.29
2016-05-17T13:01:18.463Z,17.23
2016-05-17T13:02:18.779Z,17.06
2016-05-17T13:03:18.625Z,17.02
2016-05-17T13:04:18.752Z,16.97
2016-05-17T13:05:18.787Z,17.08
2016-05-17T13:06:18.790Z,17.19